Terminal Aerodrome Forecast
Issued by NWS Charleston, WV

Current Version | Previous Version | Text Only | Print | Product List | Glossary Off
Versions: 1 2 3 4 5 6 7 8 9 10 11 12 13 14 15 16 17 18 19 20 21 22 23

000
FTUS41 KRLX 281730
TAFBKW
TAF
KBKW 281730Z 2818/2918 22010KT P6SM SKC
      TEMPO 2818/2821 25007G17KT
     FM282300 16006KT P6SM SCT050
     FM290300 00000KT P6SM SCT250
     FM291100 VRB03KT P6SM OVC003
     FM291300 VRB03KT P6SM BKN010
     FM291600 13005KT P6SM BKN060=

USA.gov is the U.S. government's official web portal to all federal, state and local government web resources and services.